sensor_id;sensor_type;location;lat;lon;timestamp;temperature;humidity
74384;DHT22;62824;52.994;-3.936;2023-07-30T00:01:20;14.50;99.90
74384;DHT22;62824;52.994;-3.936;2023-07-30T00:03:45;14.50;99.90
74384;DHT22;62824;52.994;-3.936;2023-07-30T00:06:11;14.50;99.90
74384;DHT22;62824;52.994;-3.936;2023-07-30T00:08:37;14.40;99.90
74384;DHT22;62824;52.994;-3.936;2023-07-30T00:11:03;14.40;99.90
74384;DHT22;62824;52.994;-3.936;2023-07-30T00:13:28;14.40;99.90
74384;DHT22;62824;52.994;-3.936;2023-07-30T00:15:54;14.30;99.90
74384;DHT22;62824;52.994;-3.936;2023-07-30T00:18:20;14.20;99.90
74384;DHT22;62824;52.994;-3.936;2023-07-30T00:20:46;14.20;99.90
74384;DHT22;62824;52.994;-3.936;2023-07-30T00:23:11;14.20;99.90
74384;DHT22;62824;52.994;-3.936;2023-07-30T00:25:37;14.20;99.90
74384;DHT22;62824;52.994;-3.936;2023-07-30T00:28:03;14.10;99.90
74384;DHT22;62824;52.994;-3.936;2023-07-30T00:30:29;14.10;99.90
74384;DHT22;62824;52.994;-3.936;2023-07-30T00:32:55;14.10;99.90
74384;DHT22;62824;52.994;-3.936;2023-07-30T00:35:20;14.00;99.90
74384;DHT22;62824;52.994;-3.936;2023-07-30T00:37:46;14.10;99.90
74384;DHT22;62824;52.994;-3.936;2023-07-30T00:40:12;14.00;99.90
74384;DHT22;62824;52.994;-3.936;2023-07-30T00:42:38;14.00;99.90
74384;DHT22;62824;52.994;-3.936;2023-07-30T00:45:04;14.00;99.90
74384;DHT22;62824;52.994;-3.936;2023-07-30T00:47:30;14.00;99.90
74384;DHT22;62824;52.994;-3.936;2023-07-30T00:49:56;14.00;99.90
74384;DHT22;62824;52.994;-3.936;2023-07-30T00:52:23;13.90;99.90
74384;DHT22;62824;52.994;-3.936;2023-07-30T00:54:49;13.90;99.90
74384;DHT22;62824;52.994;-3.936;2023-07-30T00:57:18;14.00;99.90
74384;DHT22;62824;52.994;-3.936;2023-07-30T00:59:46;14.00;99.90
74384;DHT22;62824;52.994;-3.936;2023-07-30T01:02:13;14.00;99.90
74384;DHT22;62824;52.994;-3.936;2023-07-30T01:04:40;14.10;99.90
74384;DHT22;62824;52.994;-3.936;2023-07-30T01:07:06;14.10;99.90
74384;DHT22;62824;52.994;-3.936;2023-07-30T01:09:33;13.90;99.90
74384;DHT22;62824;52.994;-3.936;2023-07-30T01:12:00;14.00;99.90
74384;DHT22;62824;52.994;-3.936;2023-07-30T01:14:27;13.90;99.90
74384;DHT22;62824;52.994;-3.936;2023-07-30T01:16:53;14.00;99.90
74384;DHT22;62824;52.994;-3.936;2023-07-30T01:19:19;14.00;99.90
74384;DHT22;62824;52.994;-3.936;2023-07-30T01:21:45;14.00;99.90
74384;DHT22;62824;52.994;-3.936;2023-07-30T01:24:11;14.00;99.90
74384;DHT22;62824;52.994;-3.936;2023-07-30T01:26:56;14.00;99.90
74384;DHT22;62824;52.994;-3.936;2023-07-30T01:29:40;14.00;99.90
74384;DHT22;62824;52.994;-3.936;2023-07-30T01:32:11;14.00;99.90
74384;DHT22;62824;52.994;-3.936;2023-07-30T01:34:39;13.90;99.90
74384;DHT22;62824;52.994;-3.936;2023-07-30T01:37:09;13.90;99.90
74384;DHT22;62824;52.994;-3.936;2023-07-30T01:39:36;13.80;99.90
74384;DHT22;62824;52.994;-3.936;2023-07-30T01:42:04;13.80;99.90
74384;DHT22;62824;52.994;-3.936;2023-07-30T01:44:29;13.70;99.90
74384;DHT22;62824;52.994;-3.936;2023-07-30T01:46:55;13.70;99.90
74384;DHT22;62824;52.994;-3.936;2023-07-30T01:49:21;13.60;99.90
74384;DHT22;62824;52.994;-3.936;2023-07-30T01:51:47;13.60;99.90
74384;DHT22;62824;52.994;-3.936;2023-07-30T01:54:12;13.60;99.90
74384;DHT22;62824;52.994;-3.936;2023-07-30T01:56:39;13.70;99.90
74384;DHT22;62824;52.994;-3.936;2023-07-30T01:59:05;13.70;99.90
74384;DHT22;62824;52.994;-3.936;2023-07-30T02:01:30;13.70;99.90
74384;DHT22;62824;52.994;-3.936;2023-07-30T02:03:56;13.70;99.90
74384;DHT22;62824;52.994;-3.936;2023-07-30T02:06:22;13.60;99.90
74384;DHT22;62824;52.994;-3.936;2023-07-30T02:08:48;13.60;99.90
74384;DHT22;62824;52.994;-3.936;2023-07-30T02:11:14;13.60;99.90
74384;DHT22;62824;52.994;-3.936;2023-07-30T02:13:39;13.60;99.90
74384;DHT22;62824;52.994;-3.936;2023-07-30T02:16:05;13.50;99.90
74384;DHT22;62824;52.994;-3.936;2023-07-30T02:18:31;13.60;99.90
74384;DHT22;62824;52.994;-3.936;2023-07-30T02:20:57;13.60;99.90
74384;DHT22;62824;52.994;-3.936;2023-07-30T02:23:23;13.60;99.90
74384;DHT22;62824;52.994;-3.936;2023-07-30T02:25:48;13.60;99.90
74384;DHT22;62824;52.994;-3.936;2023-07-30T02:28:14;13.60;99.90
74384;DHT22;62824;52.994;-3.936;2023-07-30T02:30:40;13.60;99.90
74384;DHT22;62824;52.994;-3.936;2023-07-30T02:33:06;13.60;99.90
74384;DHT22;62824;52.994;-3.936;2023-07-30T02:35:32;13.60;99.90
74384;DHT22;62824;52.994;-3.936;2023-07-30T02:37:57;13.60;99.90
74384;DHT22;62824;52.994;-3.936;2023-07-30T02:40:23;13.50;99.90
74384;DHT22;62824;52.994;-3.936;2023-07-30T02:42:49;13.50;99.90
74384;DHT22;62824;52.994;-3.936;2023-07-30T02:45:15;13.60;99.90
74384;DHT22;62824;52.994;-3.936;2023-07-30T02:47:42;13.60;99.90
74384;DHT22;62824;52.994;-3.936;2023-07-30T02:50:08;13.60;99.90
74384;DHT22;62824;52.994;-3.936;2023-07-30T02:52:34;13.60;99.90
74384;DHT22;62824;52.994;-3.936;2023-07-30T02:55:00;13.50;99.90
74384;DHT22;62824;52.994;-3.936;2023-07-30T02:57:26;13.50;99.90
74384;DHT22;62824;52.994;-3.936;2023-07-30T02:59:52;13.50;99.90
74384;DHT22;62824;52.994;-3.936;2023-07-30T03:02:17;13.60;99.90
74384;DHT22;62824;52.994;-3.936;2023-07-30T03:04:43;13.50;99.90
74384;DHT22;62824;52.994;-3.936;2023-07-30T03:07:09;13.40;99.90
74384;DHT22;62824;52.994;-3.936;2023-07-30T03:09:35;13.50;99.90
74384;DHT22;62824;52.994;-3.936;2023-07-30T03:12:01;13.50;99.90
74384;DHT22;62824;52.994;-3.936;2023-07-30T03:14:27;13.50;99.90
74384;DHT22;62824;52.994;-3.936;2023-07-30T03:16:53;13.50;99.90
74384;DHT22;62824;52.994;-3.936;2023-07-30T03:19:18;13.50;99.90
74384;DHT22;62824;52.994;-3.936;2023-07-30T03:21:44;13.50;99.90
74384;DHT22;62824;52.994;-3.936;2023-07-30T03:24:10;13.50;99.90
74384;DHT22;62824;52.994;-3.936;2023-07-30T03:26:36;13.50;99.90
74384;DHT22;62824;52.994;-3.936;2023-07-30T03:29:01;13.50;99.90
74384;DHT22;62824;52.994;-3.936;2023-07-30T03:31:27;13.50;99.90
74384;DHT22;62824;52.994;-3.936;2023-07-30T03:33:54;13.50;99.90
74384;DHT22;62824;52.994;-3.936;2023-07-30T03:36:20;13.50;99.90
74384;DHT22;62824;52.994;-3.936;2023-07-30T03:38:46;13.50;99.90
74384;DHT22;62824;52.994;-3.936;2023-07-30T03:41:12;13.40;99.90
74384;DHT22;62824;52.994;-3.936;2023-07-30T03:43:37;13.50;99.90
74384;DHT22;62824;52.994;-3.936;2023-07-30T03:46:03;13.40;99.90
74384;DHT22;62824;52.994;-3.936;2023-07-30T03:48:29;13.50;99.90
74384;DHT22;62824;52.994;-3.936;2023-07-30T03:50:55;13.40;99.90
74384;DHT22;62824;52.994;-3.936;2023-07-30T03:53:22;13.50;99.90
74384;DHT22;62824;52.994;-3.936;2023-07-30T03:55:47;13.50;99.90
74384;DHT22;62824;52.994;-3.936;2023-07-30T03:58:13;13.50;99.90
74384;DHT22;62824;52.994;-3.936;2023-07-30T04:00:39;13.40;99.90
74384;DHT22;62824;52.994;-3.936;2023-07-30T04:03:05;13.50;99.90
74384;DHT22;62824;52.994;-3.936;2023-07-30T04:05:31;13.40;99.90
74384;DHT22;62824;52.994;-3.936;2023-07-30T04:07:57;13.40;99.90
74384;DHT22;62824;52.994;-3.936;2023-07-30T04:10:23;13.40;99.90
74384;DHT22;62824;52.994;-3.936;2023-07-30T04:12:49;13.30;99.90
74384;DHT22;62824;52.994;-3.936;2023-07-30T04:15:16;13.40;99.90
74384;DHT22;62824;52.994;-3.936;2023-07-30T04:17:42;13.40;99.90
74384;DHT22;62824;52.994;-3.936;2023-07-30T04:20:08;13.30;99.90
74384;DHT22;62824;52.994;-3.936;2023-07-30T04:22:37;13.30;99.90
74384;DHT22;62824;52.994;-3.936;2023-07-30T04:25:03;13.30;99.90
74384;DHT22;62824;52.994;-3.936;2023-07-30T04:27:29;13.20;99.90
74384;DHT22;62824;52.994;-3.936;2023-07-30T04:29:55;13.20;99.90
74384;DHT22;62824;52.994;-3.936;2023-07-30T04:32:21;13.30;99.90
74384;DHT22;62824;52.994;-3.936;2023-07-30T04:34:47;13.30;99.90
74384;DHT22;62824;52.994;-3.936;2023-07-30T04:37:13;13.30;99.90
74384;DHT22;62824;52.994;-3.936;2023-07-30T04:39:38;13.30;99.90
74384;DHT22;62824;52.994;-3.936;2023-07-30T04:42:05;13.30;99.90
74384;DHT22;62824;52.994;-3.936;2023-07-30T04:44:30;13.30;99.90
74384;DHT22;62824;52.994;-3.936;2023-07-30T04:46:56;13.30;99.90
74384;DHT22;62824;52.994;-3.936;2023-07-30T04:49:22;13.40;99.90
74384;DHT22;62824;52.994;-3.936;2023-07-30T04:51:48;13.40;99.90
74384;DHT22;62824;52.994;-3.936;2023-07-30T04:54:14;13.40;99.90
74384;DHT22;62824;52.994;-3.936;2023-07-30T04:56:39;13.40;99.90
74384;DHT22;62824;52.994;-3.936;2023-07-30T04:59:05;13.30;99.90
74384;DHT22;62824;52.994;-3.936;2023-07-30T05:01:31;13.30;99.90
74384;DHT22;62824;52.994;-3.936;2023-07-30T05:03:57;13.40;99.90
74384;DHT22;62824;52.994;-3.936;2023-07-30T05:06:23;13.40;99.90
74384;DHT22;62824;52.994;-3.936;2023-07-30T05:08:49;13.40;99.90
74384;DHT22;62824;52.994;-3.936;2023-07-30T05:11:14;13.40;99.90
74384;DHT22;62824;52.994;-3.936;2023-07-30T05:13:40;13.40;99.90
74384;DHT22;62824;52.994;-3.936;2023-07-30T05:16:06;13.40;99.90
74384;DHT22;62824;52.994;-3.936;2023-07-30T05:18:32;13.40;99.90
74384;DHT22;62824;52.994;-3.936;2023-07-30T05:20:58;13.40;99.90
74384;DHT22;62824;52.994;-3.936;2023-07-30T05:23:24;13.40;99.90
74384;DHT22;62824;52.994;-3.936;2023-07-30T05:25:49;13.40;99.90
74384;DHT22;62824;52.994;-3.936;2023-07-30T05:28:15;13.40;99.90
74384;DHT22;62824;52.994;-3.936;2023-07-30T05:30:41;13.40;99.90
74384;DHT22;62824;52.994;-3.936;2023-07-30T05:33:07;13.40;99.90
74384;DHT22;62824;52.994;-3.936;2023-07-30T05:35:33;13.40;99.90
74384;DHT22;62824;52.994;-3.936;2023-07-30T05:37:59;13.40;99.90
74384;DHT22;62824;52.994;-3.936;2023-07-30T05:40:25;13.40;99.90
74384;DHT22;62824;52.994;-3.936;2023-07-30T05:42:50;13.40;99.90
74384;DHT22;62824;52.994;-3.936;2023-07-30T05:45:16;13.40;99.90
74384;DHT22;62824;52.994;-3.936;2023-07-30T05:47:42;13.40;99.90
74384;DHT22;62824;52.994;-3.936;2023-07-30T05:50:08;13.40;99.90
74384;DHT22;62824;52.994;-3.936;2023-07-30T05:52:34;13.40;99.90
74384;DHT22;62824;52.994;-3.936;2023-07-30T05:55:00;13.40;99.90
74384;DHT22;62824;52.994;-3.936;2023-07-30T05:57:26;13.40;99.90
74384;DHT22;62824;52.994;-3.936;2023-07-30T05:59:51;13.40;99.90
74384;DHT22;62824;52.994;-3.936;2023-07-30T06:02:17;13.40;99.90
74384;DHT22;62824;52.994;-3.936;2023-07-30T06:04:43;13.50;99.90
74384;DHT22;62824;52.994;-3.936;2023-07-30T06:07:09;13.50;99.90
74384;DHT22;62824;52.994;-3.936;2023-07-30T06:09:36;13.40;99.90
74384;DHT22;62824;52.994;-3.936;2023-07-30T06:12:02;13.40;99.90
74384;DHT22;62824;52.994;-3.936;2023-07-30T06:14:28;13.50;99.90
74384;DHT22;62824;52.994;-3.936;2023-07-30T06:16:54;13.50;99.90
74384;DHT22;62824;52.994;-3.936;2023-07-30T06:19:20;13.50;99.90
74384;DHT22;62824;52.994;-3.936;2023-07-30T06:21:45;13.50;99.90
74384;DHT22;62824;52.994;-3.936;2023-07-30T06:24:12;13.60;99.90
74384;DHT22;62824;52.994;-3.936;2023-07-30T06:26:37;13.60;99.90
74384;DHT22;62824;52.994;-3.936;2023-07-30T06:29:03;13.60;99.90
74384;DHT22;62824;52.994;-3.936;2023-07-30T06:31:29;13.60;99.90
74384;DHT22;62824;52.994;-3.936;2023-07-30T06:33:55;13.60;99.90
74384;DHT22;62824;52.994;-3.936;2023-07-30T06:36:21;13.60;99.90
74384;DHT22;62824;52.994;-3.936;2023-07-30T06:38:47;13.70;99.90
74384;DHT22;62824;52.994;-3.936;2023-07-30T06:41:13;13.70;99.90
74384;DHT22;62824;52.994;-3.936;2023-07-30T06:43:39;13.70;99.90
74384;DHT22;62824;52.994;-3.936;2023-07-30T06:46:04;13.70;99.90
74384;DHT22;62824;52.994;-3.936;2023-07-30T06:48:30;13.70;99.90
74384;DHT22;62824;52.994;-3.936;2023-07-30T06:50:57;13.70;99.90
74384;DHT22;62824;52.994;-3.936;2023-07-30T06:53:22;13.90;99.90
74384;DHT22;62824;52.994;-3.936;2023-07-30T06:55:48;13.90;99.90
74384;DHT22;62824;52.994;-3.936;2023-07-30T06:58:14;13.90;99.90
74384;DHT22;62824;52.994;-3.936;2023-07-30T07:00:40;13.90;99.90
74384;DHT22;62824;52.994;-3.936;2023-07-30T07:03:06;14.00;99.90
74384;DHT22;62824;52.994;-3.936;2023-07-30T07:05:32;14.10;99.90
74384;DHT22;62824;52.994;-3.936;2023-07-30T07:07:57;14.10;99.90
74384;DHT22;62824;52.994;-3.936;2023-07-30T07:10:23;14.10;99.90
74384;DHT22;62824;52.994;-3.936;2023-07-30T07:12:49;14.10;99.90
74384;DHT22;62824;52.994;-3.936;2023-07-30T07:15:15;14.20;99.90
74384;DHT22;62824;52.994;-3.936;2023-07-30T07:17:41;14.20;99.90
74384;DHT22;62824;52.994;-3.936;2023-07-30T07:20:07;14.20;99.90
74384;DHT22;62824;52.994;-3.936;2023-07-30T07:22:33;14.30;99.90
74384;DHT22;62824;52.994;-3.936;2023-07-30T07:24:59;14.30;99.90
74384;DHT22;62824;52.994;-3.936;2023-07-30T07:27:25;14.30;99.90
74384;DHT22;62824;52.994;-3.936;2023-07-30T07:29:52;14.30;99.90
74384;DHT22;62824;52.994;-3.936;2023-07-30T07:32:18;14.40;99.90
74384;DHT22;62824;52.994;-3.936;2023-07-30T07:34:47;14.40;99.90
74384;DHT22;62824;52.994;-3.936;2023-07-30T07:37:14;14.50;99.90
74384;DHT22;62824;52.994;-3.936;2023-07-30T07:39:44;14.60;99.90
74384;DHT22;62824;52.994;-3.936;2023-07-30T07:42:11;14.80;99.90
74384;DHT22;62824;52.994;-3.936;2023-07-30T07:44:37;14.80;99.90
74384;DHT22;62824;52.994;-3.936;2023-07-30T07:47:03;14.80;99.90
74384;DHT22;62824;52.994;-3.936;2023-07-30T07:49:29;14.80;99.90
74384;DHT22;62824;52.994;-3.936;2023-07-30T07:51:55;14.80;99.90
74384;DHT22;62824;52.994;-3.936;2023-07-30T07:54:21;14.80;99.90
74384;DHT22;62824;52.994;-3.936;2023-07-30T07:56:47;14.80;99.90
74384;DHT22;62824;52.994;-3.936;2023-07-30T07:59:13;14.80;99.90
74384;DHT22;62824;52.994;-3.936;2023-07-30T08:01:38;14.80;99.90
74384;DHT22;62824;52.994;-3.936;2023-07-30T08:04:04;14.80;99.90
74384;DHT22;62824;52.994;-3.936;2023-07-30T08:06:32;14.80;99.90
74384;DHT22;62824;52.994;-3.936;2023-07-30T08:08:58;14.80;99.90
74384;DHT22;62824;52.994;-3.936;2023-07-30T08:11:23;14.80;99.90
74384;DHT22;62824;52.994;-3.936;2023-07-30T08:13:49;14.90;99.90
74384;DHT22;62824;52.994;-3.936;2023-07-30T08:16:15;14.90;99.90
74384;DHT22;62824;52.994;-3.936;2023-07-30T08:18:41;15.00;99.90
74384;DHT22;62824;52.994;-3.936;2023-07-30T08:21:07;15.10;99.90
74384;DHT22;62824;52.994;-3.936;2023-07-30T08:23:32;15.10;99.90
74384;DHT22;62824;52.994;-3.936;2023-07-30T08:25:58;15.10;99.90
74384;DHT22;62824;52.994;-3.936;2023-07-30T08:28:24;15.20;99.90
74384;DHT22;62824;52.994;-3.936;2023-07-30T08:30:50;15.20;99.90
74384;DHT22;62824;52.994;-3.936;2023-07-30T08:33:15;15.30;99.90
74384;DHT22;62824;52.994;-3.936;2023-07-30T08:35:41;15.30;99.90
74384;DHT22;62824;52.994;-3.936;2023-07-30T08:38:07;15.40;99.90
74384;DHT22;62824;52.994;-3.936;2023-07-30T08:40:33;15.50;99.90
74384;DHT22;62824;52.994;-3.936;2023-07-30T08:42:59;15.60;99.90
74384;DHT22;62824;52.994;-3.936;2023-07-30T08:45:25;15.60;99.90
74384;DHT22;62824;52.994;-3.936;2023-07-30T08:47:51;15.70;99.90
74384;DHT22;62824;52.994;-3.936;2023-07-30T08:50:17;15.70;99.90
74384;DHT22;62824;52.994;-3.936;2023-07-30T08:52:45;15.70;99.90
74384;DHT22;62824;52.994;-3.936;2023-07-30T08:55:12;15.70;99.90
74384;DHT22;62824;52.994;-3.936;2023-07-30T08:57:39;15.80;99.90
74384;DHT22;62824;52.994;-3.936;2023-07-30T09:00:08;15.80;99.90
74384;DHT22;62824;52.994;-3.936;2023-07-30T09:02:42;15.90;99.90
74384;DHT22;62824;52.994;-3.936;2023-07-30T09:05:09;16.10;99.90
74384;DHT22;62824;52.994;-3.936;2023-07-30T09:07:35;16.10;99.90
74384;DHT22;62824;52.994;-3.936;2023-07-30T09:10:01;16.30;99.90
74384;DHT22;62824;52.994;-3.936;2023-07-30T09:12:33;16.50;99.90
74384;DHT22;62824;52.994;-3.936;2023-07-30T09:15:00;16.60;99.90
74384;DHT22;62824;52.994;-3.936;2023-07-30T09:17:27;16.60;99.90
74384;DHT22;62824;52.994;-3.936;2023-07-30T09:19:53;16.60;99.90
74384;DHT22;62824;52.994;-3.936;2023-07-30T09:22:29;16.70;99.90
74384;DHT22;62824;52.994;-3.936;2023-07-30T09:24:56;16.70;99.90
74384;DHT22;62824;52.994;-3.936;2023-07-30T09:27:24;16.70;99.90
74384;DHT22;62824;52.994;-3.936;2023-07-30T09:29:54;16.70;99.90
74384;DHT22;62824;52.994;-3.936;2023-07-30T09:32:26;16.70;99.90
74384;DHT22;62824;52.994;-3.936;2023-07-30T09:34:52;16.70;99.90
74384;DHT22;62824;52.994;-3.936;2023-07-30T09:37:17;16.70;99.90
74384;DHT22;62824;52.994;-3.936;2023-07-30T09:39:43;16.80;99.90
74384;DHT22;62824;52.994;-3.936;2023-07-30T09:42:09;16.90;99.90
74384;DHT22;62824;52.994;-3.936;2023-07-30T09:44:37;17.10;99.90
74384;DHT22;62824;52.994;-3.936;2023-07-30T09:47:05;17.00;99.90
74384;DHT22;62824;52.994;-3.936;2023-07-30T09:49:38;17.00;99.90
74384;DHT22;62824;52.994;-3.936;2023-07-30T09:52:05;16.90;99.90
74384;DHT22;62824;52.994;-3.936;2023-07-30T09:54:32;16.80;99.90
74384;DHT22;62824;52.994;-3.936;2023-07-30T09:56:58;16.70;99.90
74384;DHT22;62824;52.994;-3.936;2023-07-30T09:59:24;16.50;99.90
74384;DHT22;62824;52.994;-3.936;2023-07-30T10:01:51;16.50;99.90
74384;DHT22;62824;52.994;-3.936;2023-07-30T10:04:22;16.40;99.90
74384;DHT22;62824;52.994;-3.936;2023-07-30T10:06:55;16.40;99.90
74384;DHT22;62824;52.994;-3.936;2023-07-30T10:09:23;16.40;99.90
74384;DHT22;62824;52.994;-3.936;2023-07-30T10:11:52;16.50;99.90
74384;DHT22;62824;52.994;-3.936;2023-07-30T10:14:21;16.60;99.90
74384;DHT22;62824;52.994;-3.936;2023-07-30T10:16:56;16.90;99.90
74384;DHT22;62824;52.994;-3.936;2023-07-30T10:19:25;17.20;99.90
74384;DHT22;62824;52.994;-3.936;2023-07-30T10:24:39;17.40;99.90
74384;DHT22;62824;52.994;-3.936;2023-07-30T10:27:08;17.50;99.90
74384;DHT22;62824;52.994;-3.936;2023-07-30T10:29:46;17.40;99.90
74384;DHT22;62824;52.994;-3.936;2023-07-30T10:32:15;17.40;99.90
74384;DHT22;62824;52.994;-3.936;2023-07-30T10:35:07;17.50;99.90
74384;DHT22;62824;52.994;-3.936;2023-07-30T10:37:33;17.40;99.90
74384;DHT22;62824;52.994;-3.936;2023-07-30T10:40:10;17.30;99.90
74384;DHT22;62824;52.994;-3.936;2023-07-30T10:42:40;17.40;99.90
74384;DHT22;62824;52.994;-3.936;2023-07-30T10:45:10;17.20;99.90
74384;DHT22;62824;52.994;-3.936;2023-07-30T10:47:41;17.20;99.90
74384;DHT22;62824;52.994;-3.936;2023-07-30T10:50:08;17.40;99.90
74384;DHT22;62824;52.994;-3.936;2023-07-30T10:52:47;17.90;99.90
74384;DHT22;62824;52.994;-3.936;2023-07-30T10:55:13;18.00;99.90
74384;DHT22;62824;52.994;-3.936;2023-07-30T10:57:39;17.80;99.90
74384;DHT22;62824;52.994;-3.936;2023-07-30T11:00:06;17.60;99.90
74384;DHT22;62824;52.994;-3.936;2023-07-30T11:02:32;17.50;99.90
74384;DHT22;62824;52.994;-3.936;2023-07-30T11:04:57;17.20;99.90
74384;DHT22;62824;52.994;-3.936;2023-07-30T11:07:23;17.00;99.90
74384;DHT22;62824;52.994;-3.936;2023-07-30T11:09:59;16.90;99.90
74384;DHT22;62824;52.994;-3.936;2023-07-30T11:12:28;16.80;99.90
74384;DHT22;62824;52.994;-3.936;2023-07-30T11:15:01;16.60;99.90
74384;DHT22;62824;52.994;-3.936;2023-07-30T11:17:27;16.60;99.90
74384;DHT22;62824;52.994;-3.936;2023-07-30T11:19:53;16.70;99.90
74384;DHT22;62824;52.994;-3.936;2023-07-30T11:22:29;16.60;99.90
74384;DHT22;62824;52.994;-3.936;2023-07-30T11:24:56;16.60;99.90
74384;DHT22;62824;52.994;-3.936;2023-07-30T11:27:25;16.40;99.90
74384;DHT22;62824;52.994;-3.936;2023-07-30T11:29:57;16.50;99.90
74384;DHT22;62824;52.994;-3.936;2023-07-30T11:32:24;16.40;99.90
74384;DHT22;62824;52.994;-3.936;2023-07-30T11:34:56;16.40;99.90
74384;DHT22;62824;52.994;-3.936;2023-07-30T11:37:22;16.50;99.90
74384;DHT22;62824;52.994;-3.936;2023-07-30T11:39:48;16.50;99.90
74384;DHT22;62824;52.994;-3.936;2023-07-30T11:42:19;16.50;99.90
74384;DHT22;62824;52.994;-3.936;2023-07-30T11:44:48;16.50;99.90
74384;DHT22;62824;52.994;-3.936;2023-07-30T11:47:21;16.40;99.90
74384;DHT22;62824;52.994;-3.936;2023-07-30T11:49:57;16.50;99.90
74384;DHT22;62824;52.994;-3.936;2023-07-30T11:52:26;16.40;99.90
74384;DHT22;62824;52.994;-3.936;2023-07-30T11:55:05;16.30;99.90
74384;DHT22;62824;52.994;-3.936;2023-07-30T11:57:34;16.30;99.90
74384;DHT22;62824;52.994;-3.936;2023-07-30T12:00:01;16.50;99.90
74384;DHT22;62824;52.994;-3.936;2023-07-30T12:02:29;16.60;99.90
74384;DHT22;62824;52.994;-3.936;2023-07-30T12:04:58;16.50;99.90
74384;DHT22;62824;52.994;-3.936;2023-07-30T12:07:25;16.50;99.90
74384;DHT22;62824;52.994;-3.936;2023-07-30T12:09:50;16.40;99.90
74384;DHT22;62824;52.994;-3.936;2023-07-30T12:12:16;16.50;99.90
74384;DHT22;62824;52.994;-3.936;2023-07-30T12:17:13;16.60;99.90
74384;DHT22;62824;52.994;-3.936;2023-07-30T12:19:40;16.70;99.90
74384;DHT22;62824;52.994;-3.936;2023-07-30T12:22:06;16.90;99.90
74384;DHT22;62824;52.994;-3.936;2023-07-30T12:24:32;17.00;99.90
74384;DHT22;62824;52.994;-3.936;2023-07-30T12:26:57;17.00;99.90
74384;DHT22;62824;52.994;-3.936;2023-07-30T12:29:24;16.80;99.90
74384;DHT22;62824;52.994;-3.936;2023-07-30T12:31:50;16.70;99.90
74384;DHT22;62824;52.994;-3.936;2023-07-30T12:34:19;16.80;99.90
74384;DHT22;62824;52.994;-3.936;2023-07-30T12:36:45;16.80;99.90
74384;DHT22;62824;52.994;-3.936;2023-07-30T12:39:11;16.80;99.90
74384;DHT22;62824;52.994;-3.936;2023-07-30T12:41:37;16.70;99.90
74384;DHT22;62824;52.994;-3.936;2023-07-30T12:44:03;16.60;99.90
74384;DHT22;62824;52.994;-3.936;2023-07-30T12:46:30;16.80;99.90
74384;DHT22;62824;52.994;-3.936;2023-07-30T12:48:58;16.80;99.90
74384;DHT22;62824;52.994;-3.936;2023-07-30T12:51:28;16.90;99.90
74384;DHT22;62824;52.994;-3.936;2023-07-30T12:53:54;16.90;99.90
74384;DHT22;62824;52.994;-3.936;2023-07-30T12:56:20;16.70;99.90
74384;DHT22;62824;52.994;-3.936;2023-07-30T12:58:46;16.80;99.90
74384;DHT22;62824;52.994;-3.936;2023-07-30T13:01:11;16.80;99.90
74384;DHT22;62824;52.994;-3.936;2023-07-30T13:03:38;16.70;99.90
74384;DHT22;62824;52.994;-3.936;2023-07-30T13:06:04;16.70;99.90
74384;DHT22;62824;52.994;-3.936;2023-07-30T13:08:30;16.60;99.90
74384;DHT22;62824;52.994;-3.936;2023-07-30T13:10:56;16.40;99.90
74384;DHT22;62824;52.994;-3.936;2023-07-30T13:13:22;16.40;99.90
74384;DHT22;62824;52.994;-3.936;2023-07-30T13:15:49;16.40;99.90
74384;DHT22;62824;52.994;-3.936;2023-07-30T13:18:15;16.30;99.90
74384;DHT22;62824;52.994;-3.936;2023-07-30T13:20:40;16.30;99.90
74384;DHT22;62824;52.994;-3.936;2023-07-30T13:23:06;16.30;99.90
74384;DHT22;62824;52.994;-3.936;2023-07-30T13:25:32;16.20;99.90
74384;DHT22;62824;52.994;-3.936;2023-07-30T13:27:58;16.10;99.90
74384;DHT22;62824;52.994;-3.936;2023-07-30T13:30:24;16.20;99.90
74384;DHT22;62824;52.994;-3.936;2023-07-30T13:32:50;16.10;99.90
74384;DHT22;62824;52.994;-3.936;2023-07-30T13:35:15;16.00;99.90
74384;DHT22;62824;52.994;-3.936;2023-07-30T13:37:41;15.90;99.90
74384;DHT22;62824;52.994;-3.936;2023-07-30T13:40:09;15.90;99.90
74384;DHT22;62824;52.994;-3.936;2023-07-30T13:42:35;15.90;99.90
74384;DHT22;62824;52.994;-3.936;2023-07-30T13:45:04;15.80;99.90
74384;DHT22;62824;52.994;-3.936;2023-07-30T13:47:30;15.80;99.90
74384;DHT22;62824;52.994;-3.936;2023-07-30T13:49:56;15.80;99.90
74384;DHT22;62824;52.994;-3.936;2023-07-30T13:52:24;15.70;99.90
74384;DHT22;62824;52.994;-3.936;2023-07-30T13:54:50;15.60;99.90
74384;DHT22;62824;52.994;-3.936;2023-07-30T13:57:28;15.50;99.90
74384;DHT22;62824;52.994;-3.936;2023-07-30T13:59:54;15.40;99.90
74384;DHT22;62824;52.994;-3.936;2023-07-30T14:02:20;15.40;99.90
74384;DHT22;62824;52.994;-3.936;2023-07-30T14:04:45;15.40;99.90
74384;DHT22;62824;52.994;-3.936;2023-07-30T14:07:11;15.30;99.90
74384;DHT22;62824;52.994;-3.936;2023-07-30T14:09:37;15.30;99.90
74384;DHT22;62824;52.994;-3.936;2023-07-30T14:12:04;15.30;99.90
74384;DHT22;62824;52.994;-3.936;2023-07-30T14:14:30;15.20;99.90
74384;DHT22;62824;52.994;-3.936;2023-07-30T14:16:55;15.20;99.90
74384;DHT22;62824;52.994;-3.936;2023-07-30T14:19:21;15.20;99.90
74384;DHT22;62824;52.994;-3.936;2023-07-30T14:21:47;14.80;99.90
74384;DHT22;62824;52.994;-3.936;2023-07-30T14:24:13;14.70;99.90
74384;DHT22;62824;52.994;-3.936;2023-07-30T14:26:39;14.70;99.90
74384;DHT22;62824;52.994;-3.936;2023-07-30T14:29:05;14.60;99.90
74384;DHT22;62824;52.994;-3.936;2023-07-30T14:31:31;14.60;99.90
74384;DHT22;62824;52.994;-3.936;2023-07-30T14:33:57;14.40;99.90
74384;DHT22;62824;52.994;-3.936;2023-07-30T14:36:23;14.30;99.90
74384;DHT22;62824;52.994;-3.936;2023-07-30T14:38:49;14.20;99.90
74384;DHT22;62824;52.994;-3.936;2023-07-30T14:41:15;14.40;99.90
74384;DHT22;62824;52.994;-3.936;2023-07-30T14:43:41;14.60;99.90
74384;DHT22;62824;52.994;-3.936;2023-07-30T14:46:07;14.60;99.90
74384;DHT22;62824;52.994;-3.936;2023-07-30T14:48:39;14.60;99.90
74384;DHT22;62824;52.994;-3.936;2023-07-30T14:51:06;14.50;99.90
74384;DHT22;62824;52.994;-3.936;2023-07-30T14:53:33;14.50;99.90
74384;DHT22;62824;52.994;-3.936;2023-07-30T14:55:58;14.50;99.90
74384;DHT22;62824;52.994;-3.936;2023-07-30T14:58:24;14.30;99.90
74384;DHT22;62824;52.994;-3.936;2023-07-30T15:00:50;14.40;99.90
74384;DHT22;62824;52.994;-3.936;2023-07-30T15:03:16;14.40;99.90
74384;DHT22;62824;52.994;-3.936;2023-07-30T15:05:42;14.40;99.90
74384;DHT22;62824;52.994;-3.936;2023-07-30T15:08:08;14.40;99.90
74384;DHT22;62824;52.994;-3.936;2023-07-30T15:10:37;14.50;99.90
74384;DHT22;62824;52.994;-3.936;2023-07-30T15:13:03;14.50;99.90
74384;DHT22;62824;52.994;-3.936;2023-07-30T15:15:29;14.50;99.90
74384;DHT22;62824;52.994;-3.936;2023-07-30T15:17:55;14.70;99.90